Time;durP1;ratioP1;P1;durP2;ratioP2;P2;SDS_P1;SDS_P2;PMS_P1;PMS_P2;Temp;Humidity;BMP_temperature;BMP_pressure;BME280_temperature;BME280_humidity;BME280_pressure;Samples;Min_cycle;Max_cycle;Signal;HPM_P1;HPM_P2
2021/10/24 00:00:04;;;;;;;37.17;21.85;;;;;;;;;;6246246;23;20008;-63
2021/10/24 00:02:37;;;;;;;36.08;20.88;;;;;;;;;;6246358;22;20004;-63
2021/10/24 00:05:06;;;;;;;38.63;22.13;;;;;;;;;;6246287;22;20375;-64
2021/10/24 00:07:32;;;;;;;38.95;22.58;;;;;;;;;;6245988;22;20024;-64
2021/10/24 00:09:57;;;;;;;37.83;20.98;;;;;;;;;;6244578;23;20017;-63
2021/10/24 00:12:23;;;;;;;37.85;20.20;;;;;;;;;;6246123;22;19997;-63
2021/10/24 00:14:48;;;;;;;36.72;21.45;;;;;;;;;;6245917;23;20075;-63
2021/10/24 00:17:14;;;;;;;38.38;21.33;;;;;;;;;;6243552;23;20428;-63
2021/10/24 00:19:40;;;;;;;35.65;19.10;;;;;;;;;;6246332;23;20001;-63
2021/10/24 00:22:05;;;;;;;40.88;20.13;;;;;;;;;;6247986;22;20000;-64
2021/10/24 00:24:32;;;;;;;34.28;19.95;;;;;;;;;;6247778;23;20008;-63
2021/10/24 00:26:58;;;;;;;39.95;21.27;;;;;;;;;;6247772;22;20004;-64
2021/10/24 00:29:23;;;;;;;36.00;19.67;;;;;;;;;;6246511;23;20524;-63
2021/10/24 00:31:49;;;;;;;36.22;20.70;;;;;;;;;;6246647;23;20000;-64
2021/10/24 00:34:14;;;;;;;34.67;19.63;;;;;;;;;;6248064;22;20007;-64
2021/10/24 00:36:41;;;;;;;38.25;20.40;;;;;;;;;;6247869;22;20382;-64
2021/10/24 00:39:07;;;;;;;40.00;21.00;;;;;;;;;;6247721;23;20004;-63
2021/10/24 00:41:32;;;;;;;39.42;22.80;;;;;;;;;;6247528;22;20016;-63
2021/10/24 00:43:59;;;;;;;37.10;20.63;;;;;;;;;;6248160;23;20019;-63
2021/10/24 00:46:24;;;;;;;35.70;19.55;;;;;;;;;;6246376;23;20042;-63
2021/10/24 00:48:51;;;;;;;36.85;19.90;;;;;;;;;;6245909;23;20008;-63
2021/10/24 00:51:17;;;;;;;38.28;21.25;;;;;;;;;;6246217;23;19996;-63
2021/10/24 00:53:43;;;;;;;39.20;20.75;;;;;;;;;;6246291;23;20447;-63
2021/10/24 00:56:09;;;;;;;36.25;20.77;;;;;;;;;;6246236;23;20000;-63
2021/10/24 00:58:37;;;;;;;36.42;19.83;;;;;;;;;;6246200;23;20023;-63
2021/10/24 01:01:02;;;;;;;36.05;20.73;;;;;;;;;;6246713;23;19993;-60
2021/10/24 01:03:28;;;;;;;40.42;21.08;;;;;;;;;;6246297;23;20053;-60
2021/10/24 01:05:55;;;;;;;47.65;22.10;;;;;;;;;;6248026;22;19999;-60
2021/10/24 01:08:20;;;;;;;43.88;21.35;;;;;;;;;;6247410;22;20004;-60
2021/10/24 01:10:46;;;;;;;37.72;21.48;;;;;;;;;;6245714;23;20055;-60
2021/10/24 01:13:11;;;;;;;41.22;22.30;;;;;;;;;;6247892;22;20036;-60
2021/10/24 01:15:37;;;;;;;38.75;20.65;;;;;;;;;;6246063;23;20038;-60
2021/10/24 01:18:03;;;;;;;35.15;20.55;;;;;;;;;;6247299;23;20459;-60
2021/10/24 01:20:29;;;;;;;39.45;21.38;;;;;;;;;;6246351;23;20000;-60
2021/10/24 01:22:55;;;;;;;37.22;19.98;;;;;;;;;;6245900;23;20025;-62
2021/10/24 01:25:21;;;;;;;37.03;20.13;;;;;;;;;;6246065;23;20001;-63
2021/10/24 01:27:48;;;;;;;42.30;22.08;;;;;;;;;;6246127;23;20365;-63
2021/10/24 01:30:14;;;;;;;39.75;20.67;;;;;;;;;;6247483;22;20031;-62
2021/10/24 01:32:40;;;;;;;43.67;23.45;;;;;;;;;;6245260;23;20004;-63
2021/10/24 01:35:07;;;;;;;43.72;23.52;;;;;;;;;;6246071;23;20023;-63
2021/10/24 01:37:34;;;;;;;40.13;21.23;;;;;;;;;;6245717;23;20433;-63
2021/10/24 01:40:01;;;;;;;46.28;22.48;;;;;;;;;;6247414;22;20000;-63
2021/10/24 01:42:27;;;;;;;44.00;22.38;;;;;;;;;;6245150;23;20020;-63
2021/10/24 01:44:54;;;;;;;50.85;24.23;;;;;;;;;;6247940;23;20020;-63
2021/10/24 01:47:20;;;;;;;43.25;22.88;;;;;;;;;;6220513;23;20012;-63
2021/10/24 01:49:45;;;;;;;49.20;23.90;;;;;;;;;;6220209;23;20008;-63
2021/10/24 01:52:11;;;;;;;46.38;23.80;;;;;;;;;;6220345;23;20004;-63
2021/10/24 01:54:36;;;;;;;51.30;24.08;;;;;;;;;;6220365;23;20415;-63
2021/10/24 01:57:03;;;;;;;44.13;22.90;;;;;;;;;;6220449;23;20001;-63
2021/10/24 01:59:30;;;;;;;47.88;23.42;;;;;;;;;;6245630;23;20367;-62
2021/10/24 02:02:13;;;;;;;49.35;24.58;;;;;;;;;;6247271;23;20019;-63
2021/10/24 02:05:18;;;;;;;49.60;24.40;;;;;;;;;;6238765;23;20515;-63
2021/10/24 02:07:43;;;;;;;58.72;27.92;;;;;;;;;;6245326;23;20012;-60
2021/10/24 02:10:13;;;;;;;57.22;28.92;;;;;;;;;;6245400;23;20003;-60
2021/10/24 02:12:39;;;;;;;61.53;30.13;;;;;;;;;;6245537;23;20008;-61
2021/10/24 02:15:16;;;;;;;66.05;30.88;;;;;;;;;;6245725;23;20031;-60
2021/10/24 02:17:47;;;;;;;57.40;28.98;;;;;;;;;;6245548;23;20004;-60
2021/10/24 02:20:15;;;;;;;54.40;28.65;;;;;;;;;;6247359;23;20286;-60
2021/10/24 02:22:43;;;;;;;49.67;25.65;;;;;;;;;;6245292;23;20004;-60
2021/10/24 02:25:16;;;;;;;49.90;25.05;;;;;;;;;;6219947;23;20094;-60
2021/10/24 02:27:44;;;;;;;48.50;24.70;;;;;;;;;;6245359;23;20500;-60
2021/10/24 02:30:11;;;;;;;49.80;24.85;;;;;;;;;;6220162;23;20024;-60
2021/10/24 02:32:37;;;;;;;41.30;23.80;;;;;;;;;;6247096;22;20028;-60
2021/10/24 02:35:06;;;;;;;47.55;23.88;;;;;;;;;;6245250;23;19996;-60
2021/10/24 02:37:41;;;;;;;43.58;22.33;;;;;;;;;;6245316;23;20030;-60
2021/10/24 02:40:10;;;;;;;40.60;21.85;;;;;;;;;;6245119;23;20012;-60
2021/10/24 02:42:36;;;;;;;44.85;22.17;;;;;;;;;;6244951;23;20094;-60
2021/10/24 02:45:03;;;;;;;35.05;19.98;;;;;;;;;;6245160;23;20495;-60
2021/10/24 02:47:29;;;;;;;32.65;18.33;;;;;;;;;;6219677;23;20428;-61
2021/10/24 02:49:55;;;;;;;39.53;19.67;;;;;;;;;;6245010;23;20012;-61
2021/10/24 02:52:21;;;;;;;39.08;21.17;;;;;;;;;;6245168;23;20020;-60
2021/10/24 02:54:49;;;;;;;46.00;23.73;;;;;;;;;;6245347;23;20099;-63
2021/10/24 02:57:14;;;;;;;45.80;25.50;;;;;;;;;;6245123;23;20081;-63
2021/10/24 02:59:40;;;;;;;52.38;26.70;;;;;;;;;;6245204;23;20047;-63
2021/10/24 03:02:06;;;;;;;51.13;25.40;;;;;;;;;;6220476;23;20004;-63
2021/10/24 03:04:34;;;;;;;49.55;25.40;;;;;;;;;;6219471;23;20289;-63
2021/10/24 03:07:00;;;;;;;48.28;24.55;;;;;;;;;;6244838;23;20087;-63
2021/10/24 03:09:26;;;;;;;47.75;23.95;;;;;;;;;;6244780;23;20036;-63
2021/10/24 03:11:51;;;;;;;49.13;23.30;;;;;;;;;;6245038;23;20373;-63
2021/10/24 03:14:17;;;;;;;46.17;21.33;;;;;;;;;;6244986;23;20000;-64
2021/10/24 03:16:43;;;;;;;49.60;23.17;;;;;;;;;;6245057;23;20666;-64
2021/10/24 03:19:10;;;;;;;46.58;23.08;;;;;;;;;;6219700;23;20062;-63
2021/10/24 03:21:38;;;;;;;49.47;24.52;;;;;;;;;;6245314;23;20007;-63
2021/10/24 03:24:06;;;;;;;52.88;24.42;;;;;;;;;;6244984;23;20008;-63
2021/10/24 03:26:33;;;;;;;49.05;24.50;;;;;;;;;;6244918;23;20004;-63
2021/10/24 03:28:59;;;;;;;45.70;23.70;;;;;;;;;;6244434;23;20429;-62
2021/10/24 03:31:24;;;;;;;54.50;23.77;;;;;;;;;;6246182;22;19996;-62
2021/10/24 03:33:50;;;;;;;47.72;23.45;;;;;;;;;;6244853;23;19996;-62
2021/10/24 03:36:16;;;;;;;48.10;23.27;;;;;;;;;;6219841;23;20003;-62
2021/10/24 03:38:44;;;;;;;50.60;25.13;;;;;;;;;;6244997;23;20304;-62
2021/10/24 03:41:13;;;;;;;51.55;26.25;;;;;;;;;;6244261;23;20047;-63
2021/10/24 03:43:40;;;;;;;62.95;28.83;;;;;;;;;;6219906;23;20007;-62
2021/10/24 03:46:06;;;;;;;63.58;28.23;;;;;;;;;;6219267;23;20557;-60
2021/10/24 03:48:32;;;;;;;70.20;30.02;;;;;;;;;;6218862;23;20000;-60
2021/10/24 03:50:57;;;;;;;61.17;28.65;;;;;;;;;;6219210;23;20027;-60
2021/10/24 03:53:24;;;;;;;65.10;27.65;;;;;;;;;;6218851;23;20008;-59
2021/10/24 03:55:49;;;;;;;57.83;27.60;;;;;;;;;;6218928;23;19996;-59
2021/10/24 03:58:16;;;;;;;61.80;27.42;;;;;;;;;;6219045;23;20004;-62
2021/10/24 04:00:44;;;;;;;69.10;31.55;;;;;;;;;;6245748;23;20024;-62
2021/10/24 04:03:12;;;;;;;70.38;29.98;;;;;;;;;;6219247;23;20015;-62
2021/10/24 04:05:47;;;;;;;65.75;27.52;;;;;;;;;;6246263;23;20306;-62
2021/10/24 04:08:13;;;;;;;65.25;29.13;;;;;;;;;;6246349;23;20015;-62
2021/10/24 04:10:39;;;;;;;68.05;29.75;;;;;;;;;;6219234;23;20000;-62
2021/10/24 04:13:05;;;;;;;66.40;29.80;;;;;;;;;;6219484;23;20000;-63
2021/10/24 04:15:32;;;;;;;64.00;30.05;;;;;;;;;;6220140;23;20483;-63
2021/10/24 04:17:58;;;;;;;62.63;29.27;;;;;;;;;;6219437;23;20313;-63
2021/10/24 04:20:29;;;;;;;61.28;28.95;;;;;;;;;;6219088;23;20027;-63
2021/10/24 04:22:54;;;;;;;54.47;27.70;;;;;;;;;;6219049;23;20440;-63
2021/10/24 04:25:24;;;;;;;52.35;25.38;;;;;;;;;;6219244;23;20050;-63
2021/10/24 04:27:51;;;;;;;53.40;24.17;;;;;;;;;;6219291;23;20511;-63
2021/10/24 04:30:17;;;;;;;45.67;20.75;;;;;;;;;;6245592;23;20038;-63
2021/10/24 04:32:43;;;;;;;44.90;20.83;;;;;;;;;;6218962;23;20081;-64
2021/10/24 04:35:11;;;;;;;42.35;20.55;;;;;;;;;;6219180;23;20003;-64
2021/10/24 04:37:39;;;;;;;41.28;21.05;;;;;;;;;;6218881;23;20000;-63
2021/10/24 04:40:05;;;;;;;53.70;24.92;;;;;;;;;;6246113;23;19996;-63
2021/10/24 04:42:37;;;;;;;59.15;27.63;;;;;;;;;;6234412;23;20420;-64
2021/10/24 04:45:04;;;;;;;62.25;26.88;;;;;;;;;;6244514;23;20015;-64
2021/10/24 04:47:29;;;;;;;52.20;24.30;;;;;;;;;;6244075;23;20139;-64
2021/10/24 04:49:55;;;;;;;57.83;27.45;;;;;;;;;;6244060;23;20054;-64
2021/10/24 04:52:20;;;;;;;63.15;28.75;;;;;;;;;;6245887;23;19996;-64
2021/10/24 04:54:46;;;;;;;56.72;28.00;;;;;;;;;;6246206;23;20091;-64
2021/10/24 04:57:11;;;;;;;59.05;28.05;;;;;;;;;;6219057;23;20075;-64
2021/10/24 04:59:38;;;;;;;50.40;25.73;;;;;;;;;;6218917;23;20016;-64
2021/10/24 05:02:03;;;;;;;56.03;27.80;;;;;;;;;;6218902;23;20043;-64
2021/10/24 05:04:31;;;;;;;57.55;27.10;;;;;;;;;;6246128;23;20320;-64
2021/10/24 05:06:56;;;;;;;59.78;27.77;;;;;;;;;;6220301;23;20004;-64
2021/10/24 05:09:22;;;;;;;59.10;28.40;;;;;;;;;;6247810;23;20087;-64
2021/10/24 05:11:48;;;;;;;62.20;28.25;;;;;;;;;;6195033;23;19996;-64
2021/10/24 05:14:13;;;;;;;52.72;26.48;;;;;;;;;;6219285;23;20033;-64
2021/10/24 05:16:39;;;;;;;64.97;32.75;;;;;;;;;;6194091;23;20050;-64
2021/10/24 05:19:06;;;;;;;99.18;48.78;;;;;;;;;;6220561;23;20440;-64
2021/10/24 05:21:33;;;;;;;57.28;27.25;;;;;;;;;;6220741;23;20059;-63
2021/10/24 05:23:59;;;;;;;39.25;22.40;;;;;;;;;;6221015;23;20040;-64
2021/10/24 05:26:25;;;;;;;32.95;18.65;;;;;;;;;;6247531;23;20000;-64
2021/10/24 05:28:50;;;;;;;35.35;20.58;;;;;;;;;;6247735;23;20004;-64
2021/10/24 05:31:16;;;;;;;36.35;20.92;;;;;;;;;;6195812;23;20328;-63
2021/10/24 05:34:00;;;;;;;34.70;19.83;;;;;;;;;;6246081;23;20008;-63
2021/10/24 05:36:33;;;;;;;36.60;20.52;;;;;;;;;;6221110;23;20067;-64
2021/10/24 05:39:00;;;;;;;34.65;19.77;;;;;;;;;;6246644;23;20004;-64
2021/10/24 05:41:31;;;;;;;;;;;;;;;;;;6219563;23;20012;-64
2021/10/24 05:43:57;;;;;;;36.50;20.08;;;;;;;;;;6245593;23;20236;-64
2021/10/24 05:46:24;;;;;;;35.33;19.10;;;;;;;;;;6245420;23;20379;-64
2021/10/24 05:48:51;;;;;;;30.17;18.38;;;;;;;;;;6244993;23;20332;-64
2021/10/24 05:51:20;;;;;;;27.17;16.25;;;;;;;;;;6245515;23;20398;-64
2021/10/24 05:53:46;;;;;;;24.10;15.68;;;;;;;;;;6245108;23;20015;-64
2021/10/24 05:56:19;;;;;;;23.40;14.45;;;;;;;;;;6221632;23;20083;-64
2021/10/24 05:58:48;;;;;;;21.63;13.82;;;;;;;;;;6245539;23;20032;-64
2021/10/24 06:01:31;;;;;;;20.38;13.20;;;;;;;;;;6244975;23;20019;-64
2021/10/24 06:04:15;;;;;;;19.00;12.13;;;;;;;;;;6246781;23;20083;-64
2021/10/24 06:06:47;;;;;;;20.67;12.82;;;;;;;;;;6247503;23;20095;-64
2021/10/24 06:09:13;;;;;;;17.38;12.57;;;;;;;;;;6245012;23;20039;-64
2021/10/24 06:14:25;;;;;;;17.02;11.50;;;;;;;;;;6245045;23;20087;-64
2021/10/24 06:16:51;;;;;;;19.13;11.70;;;;;;;;;;6246462;22;20027;-64
2021/10/24 06:19:16;;;;;;;16.10;10.85;;;;;;;;;;6245192;23;20039;-64
2021/10/24 06:21:42;;;;;;;16.05;10.52;;;;;;;;;;6244520;23;20007;-64
2021/10/24 06:24:08;;;;;;;14.45;10.30;;;;;;;;;;6245493;23;20389;-64
2021/10/24 06:26:33;;;;;;;14.90;9.80;;;;;;;;;;6245457;23;20000;-64
2021/10/24 06:28:59;;;;;;;17.48;10.68;;;;;;;;;;6246576;22;20004;-64
2021/10/24 06:31:24;;;;;;;15.93;10.20;;;;;;;;;;6245544;23;20323;-64
2021/10/24 06:34:10;;;;;;;14.98;10.00;;;;;;;;;;6229579;22;20047;-64
2021/10/24 06:37:06;;;;;;;15.55;9.88;;;;;;;;;;6245151;23;20412;-63
2021/10/24 06:39:37;;;;;;;11.77;9.23;;;;;;;;;;6245129;23;20038;-63
2021/10/24 06:42:03;;;;;;;12.13;8.65;;;;;;;;;;6244585;23;20098;-63
2021/10/24 06:44:50;;;;;;;13.63;9.45;;;;;;;;;;6198650;22;20020;-63
2021/10/24 06:47:54;;;;;;;12.25;8.40;;;;;;;;;;6137205;23;20029;-63
2021/10/24 06:50:38;;;;;;;10.80;7.97;;;;;;;;;;6153230;23;20460;-60
2021/10/24 06:53:23;;;;;;;13.77;8.68;;;;;;;;;;6219973;22;20448;-60
2021/10/24 06:56:07;;;;;;;21.50;11.35;;;;;;;;;;6246425;23;20019;-63
2021/10/24 06:58:59;;;;;;;21.67;12.07;;;;;;;;;;6246529;23;20016;-63
2021/10/24 07:01:27;;;;;;;19.27;11.07;;;;;;;;;;6247299;22;20008;-63
2021/10/24 07:04:14;;;;;;;30.65;15.38;;;;;;;;;;6246528;23;20333;-63
2021/10/24 07:06:53;;;;;;;29.17;15.07;;;;;;;;;;6245005;23;20008;-63
2021/10/24 07:09:28;;;;;;;21.67;12.30;;;;;;;;;;6244341;23;20016;-63
2021/10/24 07:11:53;;;;;;;22.40;13.00;;;;;;;;;;6245909;23;20051;-63
2021/10/24 07:14:19;;;;;;;21.42;12.82;;;;;;;;;;6245795;22;19996;-63
2021/10/24 07:16:47;;;;;;;20.42;12.70;;;;;;;;;;6244371;23;20103;-63
2021/10/24 07:19:14;;;;;;;21.40;13.02;;;;;;;;;;6244298;23;20432;-63
2021/10/24 07:21:40;;;;;;;21.55;12.38;;;;;;;;;;6244378;23;20008;-63
2021/10/24 07:24:12;;;;;;;20.80;12.68;;;;;;;;;;6244637;23;20086;-63
2021/10/24 07:26:40;;;;;;;22.67;14.23;;;;;;;;;;6244829;23;20004;-63
2021/10/24 07:29:07;;;;;;;25.92;15.25;;;;;;;;;;6219832;23;20000;-63
2021/10/24 07:31:34;;;;;;;21.77;12.85;;;;;;;;;;6244448;23;20433;-63
2021/10/24 07:34:32;;;;;;;24.25;13.20;;;;;;;;;;6228187;23;20424;-63
2021/10/24 07:36:58;;;;;;;24.20;13.80;;;;;;;;;;6244635;23;20007;-63
2021/10/24 07:39:24;;;;;;;29.00;16.02;;;;;;;;;;6246212;23;20464;-63
2021/10/24 07:41:53;;;;;;;27.35;16.13;;;;;;;;;;6244782;23;20012;-63
2021/10/24 07:44:20;;;;;;;25.85;15.60;;;;;;;;;;6244641;23;20093;-63
2021/10/24 07:46:46;;;;;;;29.52;16.45;;;;;;;;;;6244541;23;20032;-63
2021/10/24 07:49:13;;;;;;;24.30;14.32;;;;;;;;;;6245977;22;20340;-63
2021/10/24 07:55:14;;;;;;;28.20;15.20;;;;;;;;;;6246618;23;19995;-63
2021/10/24 08:01:17;;;;;;;24.25;14.35;;;;;;;;;;6246589;23;20007;-63
2021/10/24 08:07:18;;;;;;;23.65;14.65;;;;;;;;;;6246560;23;20363;-63
2021/10/24 08:13:20;;;;;;;24.40;14.35;;;;;;;;;;6246497;23;19999;-63
2021/10/24 08:19:21;;;;;;;26.65;14.85;;;;;;;;;;6246511;23;20047;-63
2021/10/24 08:29:03;;;;;;;24.15;15.50;;;;;;;;;;6245928;23;20003;-63
2021/10/24 08:31:54;;;;;;;29.08;17.05;;;;;;;;;;6216785;23;20012;-63
2021/10/24 08:34:20;;;;;;;24.33;15.05;;;;;;;;;;6244237;23;20020;-63
2021/10/24 08:36:46;;;;;;;23.27;15.27;;;;;;;;;;6245761;22;20127;-64
2021/10/24 08:39:12;;;;;;;24.38;15.68;;;;;;;;;;6245712;23;20428;-64
2021/10/24 08:41:38;;;;;;;29.85;17.98;;;;;;;;;;6246340;22;20012;-64
2021/10/24 08:44:04;;;;;;;30.13;17.10;;;;;;;;;;6248090;23;20004;-64
2021/10/24 08:46:30;;;;;;;26.17;16.90;;;;;;;;;;6247664;23;20444;-64
2021/10/24 08:48:57;;;;;;;27.65;17.00;;;;;;;;;;6247599;23;20008;-64
2021/10/24 08:51:22;;;;;;;20.52;13.32;;;;;;;;;;6247677;23;20075;-64
2021/10/24 08:53:49;;;;;;;26.70;17.40;;;;;;;;;;6247556;23;20000;-64
2021/10/24 08:56:19;;;;;;;25.48;15.90;;;;;;;;;;6247502;23;19996;-64
2021/10/24 08:58:45;;;;;;;25.23;15.98;;;;;;;;;;6220771;23;20039;-64
2021/10/24 09:01:12;;;;;;;26.15;17.92;;;;;;;;;;6195273;23;20081;-64
2021/10/24 09:03:38;;;;;;;26.52;17.85;;;;;;;;;;6247383;23;20004;-64
2021/10/24 09:06:06;;;;;;;26.95;17.75;;;;;;;;;;6247506;23;20046;-63
2021/10/24 09:08:35;;;;;;;26.25;17.77;;;;;;;;;;6220632;23;20087;-63
2021/10/24 09:11:02;;;;;;;24.00;16.25;;;;;;;;;;6247310;23;20000;-64
2021/10/24 09:13:29;;;;;;;24.75;17.38;;;;;;;;;;6247405;23;20004;-64
2021/10/24 09:16:00;;;;;;;32.75;20.75;;;;;;;;;;6247268;23;20134;-64
2021/10/24 09:18:31;;;;;;;42.85;26.42;;;;;;;;;;6247311;23;20340;-64
2021/10/24 09:21:18;;;;;;;43.35;26.88;;;;;;;;;;6220136;23;20012;-64
2021/10/24 09:23:44;;;;;;;40.78;26.70;;;;;;;;;;6247079;23;20016;-64
2021/10/24 09:26:20;;;;;;;36.95;23.85;;;;;;;;;;6247260;23;19996;-64
2021/10/24 09:28:59;;;;;;;41.13;25.63;;;;;;;;;;6247117;23;20008;-64
2021/10/24 09:31:30;;;;;;;37.95;23.60;;;;;;;;;;6247250;23;20376;-64
2021/10/24 09:34:08;;;;;;;26.90;19.17;;;;;;;;;;6247078;23;20035;-63
2021/10/24 09:36:45;;;;;;;45.10;29.13;;;;;;;;;;6220167;23;20008;-63
2021/10/24 09:39:35;;;;;;;28.67;18.40;;;;;;;;;;6247295;23;20459;-63
2021/10/24 09:42:17;;;;;;;30.15;19.27;;;;;;;;;;6246364;23;20019;-63
2021/10/24 09:45:06;;;;;;;27.27;17.33;;;;;;;;;;6246930;23;20015;-63
2021/10/24 09:47:32;;;;;;;32.83;21.33;;;;;;;;;;6247285;23;20014;-63
2021/10/24 09:49:58;;;;;;;47.20;25.15;;;;;;;;;;6247095;23;20071;-63
2021/10/24 09:52:33;;;;;;;45.25;24.15;;;;;;;;;;6219804;23;20378;-63
2021/10/24 09:55:14;;;;;;;46.50;25.15;;;;;;;;;;6220425;23;20004;-63
2021/10/24 09:57:40;;;;;;;39.25;21.92;;;;;;;;;;6247057;23;20004;-63
2021/10/24 10:00:06;;;;;;;53.70;29.02;;;;;;;;;;6220109;23;20000;-64
2021/10/24 10:02:37;;;;;;;36.45;22.15;;;;;;;;;;6246974;23;20022;-64
2021/10/24 10:05:03;;;;;;;38.90;23.40;;;;;;;;;;6246859;23;20007;-63
2021/10/24 10:07:29;;;;;;;46.58;26.45;;;;;;;;;;6246889;23;19996;-63
2021/10/24 10:09:55;;;;;;;40.55;24.65;;;;;;;;;;6246692;23;20340;-63
2021/10/24 10:12:22;;;;;;;48.35;26.90;;;;;;;;;;6246927;23;19999;-63
2021/10/24 10:14:53;;;;;;;44.03;24.38;;;;;;;;;;6219153;23;20089;-64
2021/10/24 10:17:21;;;;;;;45.20;24.98;;;;;;;;;;6247076;23;20020;-64
2021/10/24 10:19:47;;;;;;;42.45;23.95;;;;;;;;;;6246717;23;20008;-64
2021/10/24 10:22:30;;;;;;;42.28;24.50;;;;;;;;;;6219875;23;20008;-64
2021/10/24 10:25:09;;;;;;;35.38;21.95;;;;;;;;;;6220282;23;20005;-64
2021/10/24 10:27:35;;;;;;;34.33;19.77;;;;;;;;;;6246729;23;20008;-64
2021/10/24 10:30:01;;;;;;;28.15;18.27;;;;;;;;;;6246449;23;20000;-64
2021/10/24 10:32:34;;;;;;;32.42;21.25;;;;;;;;;;6246611;23;20126;-64
2021/10/24 10:35:06;;;;;;;35.50;21.88;;;;;;;;;;6246777;23;20004;-64
2021/10/24 10:37:46;;;;;;;31.40;19.92;;;;;;;;;;6246764;23;20004;-64
2021/10/24 10:40:14;;;;;;;28.73;18.85;;;;;;;;;;6246612;23;20123;-64
2021/10/24 10:42:43;;;;;;;33.10;21.88;;;;;;;;;;6246186;23;20016;-64
2021/10/24 10:45:15;;;;;;;32.17;19.95;;;;;;;;;;6219728;23;20387;-64
2021/10/24 10:47:56;;;;;;;35.17;21.10;;;;;;;;;;6246682;23;20008;-64
2021/10/24 10:50:31;;;;;;;36.42;22.42;;;;;;;;;;6246533;23;20318;-64
2021/10/24 10:52:58;;;;;;;44.78;26.88;;;;;;;;;;6246542;23;20069;-64
2021/10/24 10:55:23;;;;;;;35.22;21.90;;;;;;;;;;6246481;23;20409;-64
2021/10/24 10:57:50;;;;;;;30.00;18.27;;;;;;;;;;6246336;23;20082;-64
2021/10/24 11:00:34;;;;;;;30.55;18.38;;;;;;;;;;6246396;23;20023;-63
2021/10/24 11:03:00;;;;;;;27.42;18.13;;;;;;;;;;6246230;23;20004;-64
2021/10/24 11:05:35;;;;;;;30.98;19.85;;;;;;;;;;6246166;23;20006;-64
2021/10/24 11:08:01;;;;;;;197.25;67.45;;;;;;;;;;6245921;23;20061;-64
2021/10/24 11:10:43;;;;;;;82.45;38.25;;;;;;;;;;6219245;23;20344;-64
2021/10/24 11:13:42;;;;;;;39.05;24.10;;;;;;;;;;6246242;23;20004;-64
2021/10/24 11:16:26;;;;;;;40.63;23.63;;;;;;;;;;6179839;23;20008;-64
2021/10/24 11:18:52;;;;;;;41.58;22.98;;;;;;;;;;6219551;23;20007;-64
2021/10/24 11:21:25;;;;;;;41.85;25.27;;;;;;;;;;6246060;23;20400;-64
2021/10/24 11:23:54;;;;;;;45.55;24.67;;;;;;;;;;6245987;23;20004;-64
2021/10/24 11:26:20;;;;;;;37.42;21.45;;;;;;;;;;6246040;23;20029;-64
2021/10/24 11:28:46;;;;;;;37.70;21.15;;;;;;;;;;6245924;23;20440;-64
2021/10/24 11:31:17;;;;;;;35.00;20.35;;;;;;;;;;6219264;23;19996;-64
2021/10/24 11:33:45;;;;;;;99.53;37.00;;;;;;;;;;6219428;23;20004;-64
2021/10/24 11:36:10;;;;;;;120.15;46.55;;;;;;;;;;6246015;23;20306;-64
2021/10/24 11:38:36;;;;;;;61.88;29.00;;;;;;;;;;6245931;23;20015;-64
2021/10/24 11:41:02;;;;;;;129.90;48.85;;;;;;;;;;6245659;23;20003;-64
2021/10/24 11:43:29;;;;;;;83.15;38.60;;;;;;;;;;6245915;23;20012;-64
2021/10/24 11:45:56;;;;;;;60.55;31.85;;;;;;;;;;6245854;23;20436;-64
2021/10/24 11:48:25;;;;;;;46.35;23.38;;;;;;;;;;6245750;23;20039;-64
2021/10/24 11:50:51;;;;;;;53.13;28.48;;;;;;;;;;6245774;23;20409;-64
2021/10/24 11:53:22;;;;;;;56.70;29.45;;;;;;;;;;6246008;23;20004;-64
2021/10/24 11:55:50;;;;;;;76.10;37.90;;;;;;;;;;6245710;23;20340;-64
2021/10/24 11:58:26;;;;;;;54.90;26.90;;;;;;;;;;6245788;23;20079;-64
2021/10/24 12:01:02;;;;;;;46.28;25.27;;;;;;;;;;6246082;23;20374;-64
2021/10/24 12:03:28;;;;;;;133.00;62.00;;;;;;;;;;6219215;23;20420;-64
2021/10/24 12:05:54;;;;;;;50.33;25.90;;;;;;;;;;6246043;23;20070;-64
2021/10/24 12:08:37;;;;;;;45.35;23.83;;;;;;;;;;6245713;23;20379;-64
2021/10/24 12:11:03;;;;;;;56.20;28.67;;;;;;;;;;6245747;23;20043;-63
2021/10/24 12:13:37;;;;;;;42.78;23.58;;;;;;;;;;6246007;23;19993;-64
2021/10/24 12:16:04;;;;;;;38.70;22.45;;;;;;;;;;6245613;22;20000;-64
2021/10/24 12:18:30;;;;;;;41.10;21.48;;;;;;;;;;6245780;23;20066;-64
2021/10/24 12:20:57;;;;;;;45.28;22.77;;;;;;;;;;6245709;23;20008;-64
2021/10/24 12:23:27;;;;;;;50.17;25.15;;;;;;;;;;6245816;23;20321;-64
2021/10/24 12:25:54;;;;;;;68.78;38.80;;;;;;;;;;6245904;23;20008;-64
2021/10/24 12:28:27;;;;;;;42.65;21.90;;;;;;;;;;6245470;23;20020;-64
2021/10/24 12:30:54;;;;;;;30.05;15.65;;;;;;;;;;6245705;23;20011;-64
2021/10/24 12:33:39;;;;;;;32.42;16.20;;;;;;;;;;6245608;23;20004;-64
2021/10/24 12:36:07;;;;;;;27.90;14.52;;;;;;;;;;6245762;23;20030;-64
2021/10/24 12:38:51;;;;;;;38.50;19.48;;;;;;;;;;6245822;23;20363;-64
2021/10/24 12:41:18;;;;;;;40.25;19.67;;;;;;;;;;6245218;23;20090;-64
2021/10/24 12:43:48;;;;;;;31.95;17.00;;;;;;;;;;6245794;23;20340;-64
2021/10/24 12:46:13;;;;;;;30.95;16.35;;;;;;;;;;6245846;23;20041;-64
2021/10/24 12:48:40;;;;;;;28.58;14.45;;;;;;;;;;6217828;23;20004;-64
2021/10/24 12:51:18;;;;;;;26.63;13.88;;;;;;;;;;6245716;23;20058;-64
2021/10/24 12:53:44;;;;;;;27.48;13.15;;;;;;;;;;6245777;23;20000;-64
2021/10/24 12:56:11;;;;;;;24.73;13.45;;;;;;;;;;6245695;23;20046;-64
2021/10/24 12:58:36;;;;;;;27.58;13.70;;;;;;;;;;6244558;23;20008;-64
2021/10/24 13:01:02;;;;;;;29.23;13.90;;;;;;;;;;6245843;23;20008;-64
2021/10/24 13:03:28;;;;;;;27.00;14.23;;;;;;;;;;6243202;23;20016;-64
2021/10/24 13:05:53;;;;;;;21.13;12.40;;;;;;;;;;6234035;23;20111;-64
2021/10/24 13:08:19;;;;;;;25.75;12.60;;;;;;;;;;6237891;23;20035;-64
2021/10/24 13:10:44;;;;;;;24.38;11.07;;;;;;;;;;6237857;23;20337;-64
2021/10/24 13:13:10;;;;;;;17.67;10.35;;;;;;;;;;6239272;23;20432;-64
2021/10/24 13:15:35;;;;;;;19.40;10.77;;;;;;;;;;6239243;23;20546;-64
2021/10/24 13:18:01;;;;;;;15.63;9.10;;;;;;;;;;6239474;23;20035;-64
2021/10/24 13:20:26;;;;;;;12.57;7.60;;;;;;;;;;6239325;23;20114;-64
2021/10/24 13:23:02;;;;;;;18.70;9.98;;;;;;;;;;6238017;23;20452;-64
2021/10/24 13:25:28;;;;;;;17.90;8.98;;;;;;;;;;6238402;23;20015;-64
2021/10/24 13:27:55;;;;;;;17.83;9.85;;;;;;;;;;6242257;23;19996;-64
2021/10/24 13:30:25;;;;;;;15.40;8.43;;;;;;;;;;6244461;23;20414;-64
2021/10/24 13:32:51;;;;;;;16.45;8.13;;;;;;;;;;6244354;23;20417;-64
2021/10/24 13:35:18;;;;;;;14.02;7.72;;;;;;;;;;6244035;23;20000;-64
2021/10/24 13:37:43;;;;;;;16.65;8.70;;;;;;;;;;6243427;23;20008;-64
2021/10/24 13:40:10;;;;;;;19.52;10.60;;;;;;;;;;6214830;23;20405;-64
2021/10/24 13:42:36;;;;;;;16.85;10.25;;;;;;;;;;6240508;23;20027;-64
2021/10/24 13:45:01;;;;;;;16.02;9.15;;;;;;;;;;6241483;23;20015;-64
2021/10/24 13:47:27;;;;;;;18.05;9.82;;;;;;;;;;6241217;23;20044;-64
2021/10/24 13:49:52;;;;;;;19.35;9.30;;;;;;;;;;6241261;23;20050;-64
2021/10/24 13:52:18;;;;;;;14.10;8.40;;;;;;;;;;6241229;23;20004;-64
2021/10/24 13:54:43;;;;;;;18.85;8.13;;;;;;;;;;6241634;23;20011;-64
2021/10/24 13:57:09;;;;;;;16.75;8.50;;;;;;;;;;6241380;23;20062;-64
2021/10/24 13:59:35;;;;;;;15.57;8.57;;;;;;;;;;6241225;23;20007;-64
2021/10/24 14:02:01;;;;;;;14.57;8.02;;;;;;;;;;6240680;23;20117;-64
2021/10/24 14:04:28;;;;;;;18.05;9.95;;;;;;;;;;6241606;23;20004;-64
2021/10/24 14:06:53;;;;;;;21.85;11.07;;;;;;;;;;6241280;23;20012;-64
2021/10/24 14:09:19;;;;;;;18.67;8.85;;;;;;;;;;6240810;23;20004;-64
2021/10/24 14:11:45;;;;;;;15.75;8.52;;;;;;;;;;6240819;23;20023;-64
2021/10/24 14:14:11;;;;;;;17.83;8.38;;;;;;;;;;6241117;23;19997;-64
2021/10/24 14:16:37;;;;;;;67.85;29.80;;;;;;;;;;6241255;23;20012;-64
2021/10/24 14:19:02;;;;;;;28.35;13.63;;;;;;;;;;6240982;23;19992;-64
2021/10/24 14:21:28;;;;;;;14.13;7.40;;;;;;;;;;6241194;23;20004;-64
2021/10/24 14:23:53;;;;;;;18.02;7.90;;;;;;;;;;6240858;23;20004;-64
2021/10/24 14:26:18;;;;;;;16.08;7.13;;;;;;;;;;6240964;23;20008;-64
2021/10/24 14:28:44;;;;;;;14.55;6.43;;;;;;;;;;6241035;23;20000;-64
2021/10/24 14:31:10;;;;;;;12.05;6.82;;;;;;;;;;6241179;23;20429;-64
2021/10/24 14:33:35;;;;;;;66.57;30.33;;;;;;;;;;6240582;23;20004;-64
2021/10/24 14:36:01;;;;;;;20.40;10.48;;;;;;;;;;6213777;23;20081;-63
2021/10/24 14:38:26;;;;;;;21.75;10.07;;;;;;;;;;6240587;23;20342;-64
2021/10/24 14:40:52;;;;;;;17.98;10.13;;;;;;;;;;6240781;23;20012;-64
2021/10/24 14:43:18;;;;;;;23.10;10.93;;;;;;;;;;6239670;23;20099;-63
2021/10/24 14:45:43;;;;;;;82.43;32.45;;;;;;;;;;6240723;23;20016;-64
2021/10/24 14:48:09;;;;;;;27.02;12.85;;;;;;;;;;6240688;23;20004;-64
2021/10/24 14:50:35;;;;;;;25.13;12.60;;;;;;;;;;6240981;23;20019;-64
2021/10/24 14:53:01;;;;;;;40.00;18.20;;;;;;;;;;6240722;23;20008;-64
2021/10/24 14:55:27;;;;;;;29.08;14.38;;;;;;;;;;6240719;22;20012;-64